Time;durP1;ratioP1;P1;durP2;ratioP2;P2;SDS_P1;SDS_P2;PMS_P1;PMS_P2;Temp;Humidity;BMP_temperature;BMP_pressure;BME280_temperature;BME280_humidity;BME280_pressure;Samples;Min_cycle;Max_cycle;Signal;HPM_P1;HPM_P2
2024/03/11 00:01:20;;;;;;;38.83;20.87;;;6.30;1.00;;;;;;5118077;28;20249;-79
2024/03/11 00:03:47;;;;;;;35.47;19.97;;;6.20;1.00;;;;;;5112073;28;20204;-79
2024/03/11 00:06:14;;;;;;;36.60;21.07;;;6.10;1.00;;;;;;5112385;28;20200;-79
2024/03/11 00:08:41;;;;;;;36.40;21.07;;;6.00;99.90;;;;;;5111006;28;20255;-78
2024/03/11 00:11:11;;;;;;;38.63;21.70;;;6.10;98.50;;;;;;5103460;28;20228;-79
2024/03/11 00:13:38;;;;;;;38.30;21.80;;;6.30;1.00;;;;;;5110132;28;20647;-79
2024/03/11 00:16:07;;;;;;;37.67;20.77;;;6.30;1.00;;;;;;5111958;28;20194;-79
2024/03/11 00:18:34;;;;;;;40.80;22.00;;;6.40;1.00;;;;;;5110350;28;20559;-79
2024/03/11 00:21:01;;;;;;;37.80;22.57;;;6.40;1.00;;;;;;5110892;28;20315;-78
2024/03/11 00:23:28;;;;;;;39.03;22.20;;;6.40;1.00;;;;;;5107223;28;20202;-79
2024/03/11 00:25:55;;;;;;;37.10;19.73;;;6.40;1.00;;;;;;5109024;27;20216;-79
2024/03/11 00:28:23;;;;;;;39.77;22.63;;;6.30;1.00;;;;;;5106620;28;20241;-79
2024/03/11 00:30:51;;;;;;;36.30;21.87;;;6.30;99.90;;;;;;5107202;28;20223;-79
2024/03/11 00:33:20;;;;;;;38.93;22.53;;;6.30;99.90;;;;;;5107141;28;20216;-79
2024/03/11 00:35:47;;;;;;;37.67;22.30;;;6.30;99.90;;;;;;5099298;28;20221;-79
2024/03/11 00:38:14;;;;;;;38.50;22.57;;;6.40;99.90;;;;;;5108833;28;20676;-77
2024/03/11 00:40:40;;;;;;;40.80;22.80;;;6.50;27.80;;;;;;5105454;28;20217;-77
2024/03/11 00:43:08;;;;;;;40.13;23.20;;;6.50;1.00;;;;;;5108911;28;20735;-79
2024/03/11 00:45:35;;;;;;;36.30;21.63;;;6.60;1.00;;;;;;5113539;28;20210;-79
2024/03/11 00:48:03;;;;;;;34.20;21.40;;;6.70;1.00;;;;;;5106463;28;20296;-79
2024/03/11 00:50:33;;;;;;;33.63;20.20;;;6.80;99.90;;;;;;5115405;28;20690;-78
2024/03/11 00:53:00;;;;;;;34.13;20.27;;;6.90;1.00;;;;;;5119931;27;20209;-80
2024/03/11 00:55:28;;;;;;;36.13;21.43;;;6.90;1.00;;;;;;5111611;28;20224;-78
2024/03/11 00:57:55;;;;;;;35.60;20.40;;;6.90;1.00;;;;;;5120191;28;20250;-79
2024/03/11 01:00:22;;;;;;;36.00;21.37;;;6.90;1.00;;;;;;5109619;28;20220;-79
2024/03/11 01:02:51;;;;;;;32.50;19.77;;;6.90;1.00;;;;;;5116257;28;20282;-79
2024/03/11 01:05:18;;;;;;;36.33;21.13;;;6.90;1.00;;;;;;5114085;28;20212;-79
2024/03/11 01:07:47;;;;;;;35.10;20.90;;;7.10;1.00;;;;;;5110562;28;20246;-77
2024/03/11 01:10:15;;;;;;;33.77;20.37;;;7.20;1.00;;;;;;5107839;28;20760;-79
2024/03/11 01:12:42;;;;;;;36.37;21.83;;;7.20;1.00;;;;;;5101984;28;20236;-79
2024/03/11 01:15:10;;;;;;;33.37;20.73;;;7.20;99.90;;;;;;5105485;28;20201;-79
2024/03/11 01:17:37;;;;;;;34.70;20.43;;;7.20;51.00;;;;;;5103659;28;20691;-79
2024/03/11 01:20:05;;;;;;;32.43;19.93;;;7.30;1.00;;;;;;5103067;28;20208;-79
2024/03/11 01:22:34;;;;;;;34.70;21.07;;;7.20;18.70;;;;;;5098693;28;20198;-79
2024/03/11 01:25:05;;;;;;;34.97;21.20;;;7.10;99.90;;;;;;5110215;28;20295;-79
2024/03/11 01:27:33;;;;;;;36.60;20.97;;;7.00;1.00;;;;;;5103882;28;20229;-78
2024/03/11 01:30:00;;;;;;;37.93;20.90;;;6.90;1.00;;;;;;5105336;28;20201;-78
2024/03/11 01:32:28;;;;;;;33.53;21.07;;;6.90;1.00;;;;;;5112795;28;20209;-79
2024/03/11 01:34:57;;;;;;;35.73;20.70;;;7.00;1.00;;;;;;5110998;28;20227;-79
2024/03/11 01:37:24;;;;;;;32.63;20.67;;;6.90;1.00;;;;;;5115965;28;20201;-79
2024/03/11 01:39:51;;;;;;;33.50;19.13;;;6.90;1.00;;;;;;5112139;28;20206;-78
2024/03/11 01:42:19;;;;;;;33.60;20.87;;;6.90;1.00;;;;;;5109894;28;20201;-79
2024/03/11 01:44:49;;;;;;;35.17;21.70;;;7.00;99.90;;;;;;5108046;28;20216;-77
2024/03/11 01:47:17;;;;;;;34.77;20.83;;;6.90;1.00;;;;;;5111201;28;20640;-79
2024/03/11 01:49:47;;;;;;;31.57;19.47;;;6.90;1.00;;;;;;5113865;28;20538;-79
2024/03/11 01:52:16;;;;;;;32.53;19.97;;;6.70;99.90;;;;;;5110620;28;20231;-79
2024/03/11 01:54:44;;;;;;;34.17;20.80;;;6.70;99.90;;;;;;5106509;28;20236;-78
2024/03/11 01:57:12;;;;;;;34.50;21.10;;;6.80;99.90;;;;;;5112020;28;20212;-78
2024/03/11 01:59:41;;;;;;;34.53;20.23;;;6.80;99.90;;;;;;5109816;28;20268;-78
2024/03/11 02:02:08;;;;;;;34.37;19.27;;;6.80;99.90;;;;;;5114321;28;20221;-77
2024/03/11 02:04:35;;;;;;;33.87;20.20;;;6.60;99.90;;;;;;5108858;28;20208;-78
2024/03/11 02:07:03;;;;;;;32.40;19.97;;;6.50;1.00;;;;;;5117961;28;20233;-79
2024/03/11 02:09:30;;;;;;;33.47;21.13;;;6.40;1.00;;;;;;5112353;28;20218;-79
2024/03/11 02:11:59;;;;;;;33.23;20.13;;;6.30;99.90;;;;;;5110561;27;20641;-79
2024/03/11 02:14:26;;;;;;;36.67;20.97;;;6.30;1.00;;;;;;5110763;28;20680;-77
2024/03/11 02:16:58;;;;;;;34.20;20.53;;;6.30;1.00;;;;;;5112297;28;20234;-78
2024/03/11 02:19:26;;;;;;;34.97;19.43;;;6.30;1.00;;;;;;5108252;28;20203;-79
2024/03/11 02:21:53;;;;;;;31.20;18.43;;;6.20;33.90;;;;;;5101000;28;20303;-79
2024/03/11 02:24:21;;;;;;;32.47;19.73;;;6.10;99.90;;;;;;5104219;28;20227;-78
2024/03/11 02:26:49;;;;;;;35.77;20.30;;;6.00;1.00;;;;;;5111417;28;20238;-78
2024/03/11 02:29:16;;;;;;;34.23;21.63;;;6.00;1.00;;;;;;5103691;28;21831;-79
2024/03/11 02:31:44;;;;;;;35.47;20.70;;;6.00;84.20;;;;;;5104098;28;20226;-79
2024/03/11 02:34:11;;;;;;;37.03;20.17;;;6.20;1.00;;;;;;5105012;28;20641;-79
2024/03/11 02:36:40;;;;;;;34.60;20.47;;;6.20;1.00;;;;;;5111136;28;20341;-79
2024/03/11 02:39:07;;;;;;;36.93;20.80;;;6.30;1.00;;;;;;5101154;28;20194;-79
2024/03/11 02:41:37;;;;;;;37.13;20.83;;;6.20;1.00;;;;;;5100564;28;20260;-79
2024/03/11 02:44:04;;;;;;;35.93;20.87;;;6.30;1.00;;;;;;5109529;28;20212;-79
2024/03/11 02:46:31;;;;;;;38.23;21.27;;;6.20;72.10;;;;;;5106561;28;20193;-79
2024/03/11 02:48:58;;;;;;;36.07;21.40;;;6.30;1.00;;;;;;5108534;28;20263;-79
2024/03/11 02:51:25;;;;;;;39.40;20.60;;;6.50;1.00;;;;;;5103505;28;20225;-78
2024/03/11 02:53:52;;;;;;;34.13;19.80;;;6.50;1.00;;;;;;5103273;28;20201;-79
2024/03/11 02:56:19;;;;;;;38.03;21.43;;;6.60;99.90;;;;;;5109626;28;20720;-78
2024/03/11 02:58:47;;;;;;;33.83;20.03;;;6.60;99.90;;;;;;5100227;28;20198;-79
2024/03/11 03:01:14;;;;;;;35.00;21.10;;;6.60;99.90;;;;;;5097916;28;20221;-78
2024/03/11 03:03:41;;;;;;;36.27;21.70;;;6.60;86.70;;;;;;5106846;28;20671;-78
2024/03/11 03:06:08;;;;;;;34.57;20.30;;;6.70;1.00;;;;;;5104869;28;20200;-79
2024/03/11 03:08:36;;;;;;;35.13;20.07;;;6.80;99.90;;;;;;5113332;28;20250;-79
2024/03/11 03:11:03;;;;;;;39.23;22.00;;;6.90;1.00;;;;;;5107552;28;20244;-79
2024/03/11 03:13:30;;;;;;;37.50;20.60;;;6.80;1.00;;;;;;5105578;28;20203;-78
2024/03/11 03:15:59;;;;;;;34.63;19.87;;;6.80;1.00;;;;;;5114378;28;20292;-80
2024/03/11 03:18:26;;;;;;;32.77;19.50;;;6.80;25.90;;;;;;5107427;28;20202;-79
2024/03/11 03:20:53;;;;;;;34.87;20.40;;;6.80;34.80;;;;;;5111125;28;20221;-80
2024/03/11 03:23:19;;;;;;;32.53;19.70;;;6.60;99.90;;;;;;5109939;28;20228;-79
2024/03/11 03:25:47;;;;;;;32.63;19.10;;;6.60;99.90;;;;;;5105118;28;20204;-79
2024/03/11 03:28:14;;;;;;;33.10;20.57;;;6.60;1.00;;;;;;5106190;28;20252;-79
2024/03/11 03:30:42;;;;;;;32.97;20.30;;;6.60;1.00;;;;;;5110493;28;20249;-79
2024/03/11 03:33:11;;;;;;;34.27;20.03;;;6.60;1.00;;;;;;5099821;28;20213;-78
2024/03/11 03:35:38;;;;;;;32.07;20.07;;;6.50;1.00;;;;;;5096243;28;20288;-79
2024/03/11 03:38:05;;;;;;;31.30;19.30;;;6.50;1.00;;;;;;5108731;28;20226;-78
2024/03/11 03:40:32;;;;;;;33.07;19.93;;;6.50;1.00;;;;;;5115868;28;20712;-78
2024/03/11 03:42:59;;;;;;;32.27;19.57;;;6.50;1.00;;;;;;5110097;28;20217;-77
2024/03/11 03:45:27;;;;;;;34.50;20.27;;;6.50;1.00;;;;;;5109737;28;20225;-79
2024/03/11 03:47:54;;;;;;;32.87;19.40;;;6.50;1.00;;;;;;5116187;28;20258;-79
2024/03/11 03:50:22;;;;;;;30.90;18.97;;;6.40;1.00;;;;;;5104664;28;20252;-80
2024/03/11 03:52:49;;;;;;;32.20;19.57;;;6.40;1.00;;;;;;5100033;28;20205;-78
2024/03/11 03:55:16;;;;;;;31.53;19.37;;;6.40;24.50;;;;;;5100821;28;20286;-78
2024/03/11 03:57:44;;;;;;;32.07;19.17;;;6.40;56.00;;;;;;5093617;28;20204;-78
2024/03/11 04:00:16;;;;;;;34.73;20.13;;;6.40;99.90;;;;;;5094795;28;20249;-77
2024/03/11 04:02:43;;;;;;;30.47;18.37;;;6.40;99.90;;;;;;5098312;28;20203;-78
2024/03/11 04:05:11;;;;;;;28.57;18.30;;;6.30;99.90;;;;;;5096891;28;20229;-78
2024/03/11 04:07:40;;;;;;;32.00;19.27;;;6.20;99.90;;;;;;5095368;28;20201;-78
2024/03/11 04:10:11;;;;;;;29.93;18.77;;;6.20;1.00;;;;;;5092941;28;20221;-78
2024/03/11 04:12:41;;;;;;;31.73;19.87;;;6.10;1.00;;;;;;5109951;28;20212;-78
2024/03/11 04:15:12;;;;;;;29.90;18.53;;;6.10;1.00;;;;;;5095194;28;20201;-78
2024/03/11 04:17:39;;;;;;;32.47;19.47;;;6.20;1.00;;;;;;5100050;28;20208;-79
2024/03/11 04:20:11;;;;;;;31.07;19.17;;;6.30;1.00;;;;;;5104712;28;20303;-77
2024/03/11 04:22:41;;;;;;;33.30;20.90;;;6.30;1.00;;;;;;5110849;28;20204;-78
2024/03/11 04:25:14;;;;;;;30.07;18.63;;;6.30;1.00;;;;;;5106871;28;20294;-78
2024/03/11 04:27:41;;;;;;;32.37;20.60;;;6.40;1.00;;;;;;5109317;28;20197;-80
2024/03/11 04:30:09;;;;;;;33.57;20.03;;;6.40;1.00;;;;;;5111424;28;20760;-77
2024/03/11 04:32:36;;;;;;;30.57;18.90;;;6.40;1.00;;;;;;5110463;28;20292;-77
2024/03/11 04:35:04;;;;;;;31.03;18.77;;;6.40;1.00;;;;;;5104967;28;20686;-76
2024/03/11 04:37:31;;;;;;;30.80;19.47;;;6.40;1.00;;;;;;5111363;28;20267;-76
2024/03/11 04:40:00;;;;;;;32.53;20.60;;;6.20;99.90;;;;;;5106701;28;20251;-77
2024/03/11 04:42:27;;;;;;;34.03;21.07;;;6.20;99.90;;;;;;5099619;28;20197;-76
2024/03/11 04:44:54;;;;;;;35.57;20.67;;;6.30;99.90;;;;;;5095824;28;20205;-76
2024/03/11 04:47:22;;;;;;;36.23;21.37;;;6.30;99.90;;;;;;5099399;28;20198;-77
2024/03/11 04:49:49;;;;;;;36.57;21.97;;;6.40;42.50;;;;;;5098669;28;20620;-77
2024/03/11 04:52:17;;;;;;;35.57;20.77;;;6.30;1.00;;;;;;5106250;28;20198;-77
2024/03/11 04:54:44;;;;;;;34.20;21.20;;;6.40;1.00;;;;;;5099992;28;20196;-77
2024/03/11 04:57:12;;;;;;;36.27;21.40;;;6.40;1.00;;;;;;5095762;28;20211;-76
2024/03/11 04:59:40;;;;;;;35.10;20.53;;;6.30;99.90;;;;;;5099381;28;20201;-77
2024/03/11 05:02:08;;;;;;;37.23;21.47;;;6.20;99.90;;;;;;5100523;28;20221;-77
2024/03/11 05:04:36;;;;;;;35.90;22.33;;;6.20;99.90;;;;;;5099582;28;20313;-77
2024/03/11 05:07:03;;;;;;;38.13;22.80;;;6.20;99.90;;;;;;5094899;28;20205;-77
2024/03/11 05:09:30;;;;;;;37.07;20.43;;;6.30;99.90;;;;;;5104976;28;20256;-78
2024/03/11 05:11:58;;;;;;;36.27;21.13;;;6.30;99.90;;;;;;5102093;28;20221;-80
2024/03/11 05:14:26;;;;;;;34.50;19.60;;;6.30;99.90;;;;;;5109141;28;20227;-80
2024/03/11 05:16:55;;;;;;;33.63;19.67;;;6.40;99.90;;;;;;5109671;28;20243;-80
2024/03/11 05:19:22;;;;;;;34.83;20.50;;;6.40;99.90;;;;;;5109465;28;20566;-80
2024/03/11 05:21:49;;;;;;;35.50;21.13;;;6.40;99.90;;;;;;5109026;28;20253;-79
2024/03/11 05:24:17;;;;;;;32.33;20.70;;;6.40;99.90;;;;;;5107546;28;20635;-79
2024/03/11 05:26:44;;;;;;;33.73;20.40;;;6.40;99.90;;;;;;5110629;28;20208;-80
2024/03/11 05:29:13;;;;;;;36.23;21.40;;;6.40;99.90;;;;;;5113238;27;20216;-80
2024/03/11 05:31:41;;;;;;;34.37;20.03;;;6.50;99.90;;;;;;5106615;28;20225;-80
2024/03/11 05:34:08;;;;;;;31.33;19.87;;;6.40;99.90;;;;;;5112341;28;20205;-80
2024/03/11 05:36:36;;;;;;;33.53;20.80;;;6.40;99.90;;;;;;5113796;28;20236;-80
2024/03/11 05:39:06;;;;;;;33.03;21.00;;;6.50;99.90;;;;;;5111873;28;20209;-80
2024/03/11 05:41:33;;;;;;;33.87;20.83;;;6.50;99.90;;;;;;5112737;28;20213;-80
2024/03/11 05:44:00;;;;;;;34.97;21.07;;;6.50;99.90;;;;;;5110940;28;20694;-79
2024/03/11 05:46:28;;;;;;;33.97;20.10;;;6.50;99.90;;;;;;5097253;28;20234;-80
2024/03/11 05:48:56;;;;;;;32.50;19.80;;;6.60;1.00;;;;;;5104841;28;20586;-79
2024/03/11 05:51:25;;;;;;;32.57;20.10;;;6.50;16.30;;;;;;5105464;28;20219;-79
2024/03/11 05:53:53;;;;;;;33.53;20.43;;;6.50;99.90;;;;;;5107280;28;20197;-79
2024/03/11 05:56:22;;;;;;;38.47;22.17;;;6.50;99.90;;;;;;5104893;28;20280;-79
2024/03/11 05:58:49;;;;;;;32.20;19.63;;;6.50;99.90;;;;;;5109050;28;20695;-80
2024/03/11 06:01:16;;;;;;;33.80;21.20;;;6.50;99.90;;;;;;5108951;28;20308;-80
2024/03/11 06:03:43;;;;;;;35.30;20.87;;;6.50;93.00;;;;;;5107613;28;20204;-80
2024/03/11 06:06:11;;;;;;;38.73;21.40;;;6.60;96.50;;;;;;5106460;28;20636;-79
2024/03/11 06:08:39;;;;;;;34.00;20.47;;;6.50;6.70;;;;;;5106058;28;20460;-80
2024/03/11 06:11:08;;;;;;;35.23;21.50;;;6.50;99.90;;;;;;5104784;28;20220;-79
2024/03/11 06:13:37;;;;;;;35.50;21.30;;;6.50;99.90;;;;;;5107049;28;20207;-80
2024/03/11 06:16:07;;;;;;;35.57;20.93;;;6.60;99.90;;;;;;5101262;28;21194;-79
2024/03/11 06:18:35;;;;;;;35.73;21.00;;;6.50;99.90;;;;;;5103688;28;20205;-79
2024/03/11 06:21:02;;;;;;;36.07;21.47;;;6.50;99.90;;;;;;5107461;28;20625;-80
2024/03/11 06:23:32;;;;;;;34.73;20.53;;;6.40;99.90;;;;;;5108890;28;20288;-79
2024/03/11 06:25:59;;;;;;;34.63;20.73;;;6.50;99.90;;;;;;5104376;28;20698;-79
2024/03/11 06:28:26;;;;;;;34.63;21.73;;;6.50;99.90;;;;;;5108574;28;20235;-79
2024/03/11 06:30:53;;;;;;;37.40;22.23;;;6.40;99.90;;;;;;5110792;28;20604;-79
2024/03/11 06:33:22;;;;;;;35.60;21.87;;;6.40;99.90;;;;;;5109184;28;20236;-79
2024/03/11 06:35:49;;;;;;;37.23;21.97;;;6.40;99.90;;;;;;5112285;28;20627;-79
2024/03/11 06:38:16;;;;;;;35.03;21.00;;;6.40;99.90;;;;;;5110416;28;20234;-79
2024/03/11 06:40:45;;;;;;;34.93;22.20;;;6.40;99.90;;;;;;5110828;28;20274;-79
2024/03/11 06:43:12;;;;;;;38.10;22.57;;;6.40;99.90;;;;;;5102507;28;20206;-79
2024/03/11 06:45:39;;;;;;;34.20;20.40;;;6.40;99.90;;;;;;5094791;28;20225;-79
2024/03/11 06:48:06;;;;;;;37.70;24.37;;;6.40;99.90;;;;;;5103198;28;20201;-79
2024/03/11 06:50:34;;;;;;;34.53;21.00;;;6.40;99.90;;;;;;5102203;28;20637;-80
2024/03/11 06:53:01;;;;;;;37.93;21.53;;;6.50;99.90;;;;;;5105045;28;20640;-80
2024/03/11 06:55:28;;;;;;;37.73;21.37;;;6.50;99.90;;;;;;5104170;28;20203;-79
2024/03/11 06:57:56;;;;;;;36.43;21.43;;;6.50;99.90;;;;;;5098401;28;20194;-79
2024/03/11 07:00:25;;;;;;;33.23;21.80;;;6.60;99.90;;;;;;5102134;28;20217;-79
2024/03/11 07:02:52;;;;;;;36.17;21.20;;;6.60;99.90;;;;;;5104037;28;20242;-80
2024/03/11 07:05:26;;;;;;;37.43;21.43;;;6.60;99.90;;;;;;5107146;28;20196;-80
2024/03/11 07:07:55;;;;;;;35.53;21.83;;;6.70;99.90;;;;;;5102948;28;20204;-80
2024/03/11 07:10:23;;;;;;;35.70;21.70;;;6.70;99.90;;;;;;5106928;28;20270;-80
2024/03/11 07:12:50;;;;;;;37.27;22.37;;;6.70;99.90;;;;;;5104757;28;20209;-79
2024/03/11 07:15:19;;;;;;;35.20;22.00;;;6.80;99.90;;;;;;5107360;28;20635;-79
2024/03/11 07:17:46;;;;;;;34.67;22.33;;;6.70;99.90;;;;;;5103506;28;20204;-79
2024/03/11 07:20:14;;;;;;;32.40;21.57;;;6.80;99.90;;;;;;5105273;28;20219;-79
2024/03/11 07:22:42;;;;;;;33.37;21.07;;;6.80;99.90;;;;;;5105745;28;20216;-80
2024/03/11 07:25:10;;;;;;;36.10;22.13;;;6.80;99.90;;;;;;5108005;28;20201;-80
2024/03/11 07:27:38;;;;;;;34.27;21.77;;;6.80;99.90;;;;;;5111000;28;20619;-80
2024/03/11 07:30:07;;;;;;;35.10;22.40;;;6.80;99.90;;;;;;5109001;28;20307;-80
2024/03/11 07:32:35;;;;;;;36.77;22.00;;;6.90;99.90;;;;;;5110706;28;20209;-79
2024/03/11 07:35:03;;;;;;;33.30;22.23;;;6.90;99.90;;;;;;5109537;28;20228;-79
2024/03/11 07:37:36;;;;;;;36.87;23.43;;;6.90;99.90;;;;;;5111404;28;20208;-80
2024/03/11 07:40:06;;;;;;;39.97;23.77;;;7.00;99.90;;;;;;5113341;28;20209;-80
2024/03/11 07:42:34;;;;;;;35.77;23.40;;;7.00;99.90;;;;;;5112345;28;20259;-79
2024/03/11 07:45:01;;;;;;;36.33;22.87;;;7.00;99.90;;;;;;5105943;28;20209;-80
2024/03/11 07:47:28;;;;;;;35.73;22.83;;;7.10;18.70;;;;;;5096675;28;20220;-80
2024/03/11 07:49:58;;;;;;;36.77;22.80;;;7.10;1.00;;;;;;5099865;28;20304;-80
2024/03/11 07:52:25;;;;;;;36.13;22.43;;;7.10;1.00;;;;;;5101547;28;20193;-80
2024/03/11 07:54:53;;;;;;;37.60;24.70;;;7.10;1.00;;;;;;5098711;28;20716;-80
2024/03/11 07:57:20;;;;;;;38.07;23.97;;;7.10;24.20;;;;;;5109020;28;20262;-80
2024/03/11 07:59:47;;;;;;;37.13;23.10;;;7.10;99.90;;;;;;5106966;28;20197;-80
2024/03/11 08:02:15;;;;;;;35.63;22.97;;;7.20;99.90;;;;;;5111112;28;20695;-80
2024/03/11 08:04:41;;;;;;;38.93;23.97;;;7.20;99.90;;;;;;5102923;28;20211;-80
2024/03/11 08:07:10;;;;;;;37.90;25.17;;;7.30;99.90;;;;;;5104798;28;20251;-79
2024/03/11 08:09:37;;;;;;;36.23;23.47;;;7.40;99.90;;;;;;5115033;28;20647;-80
2024/03/11 08:12:05;;;;;;;36.53;22.93;;;7.60;99.90;;;;;;5109003;28;20217;-80
2024/03/11 08:14:32;;;;;;;36.10;23.53;;;7.60;99.90;;;;;;5108057;28;20219;-80
2024/03/11 08:16:59;;;;;;;37.63;24.17;;;7.70;1.00;;;;;;5106535;28;20569;-80
2024/03/11 08:19:26;;;;;;;36.87;24.43;;;8.10;1.00;;;;;;5104601;28;20656;-80
2024/03/11 08:21:53;;;;;;;37.43;24.73;;;7.90;1.00;;;;;;5109306;28;20225;-80
2024/03/11 08:24:21;;;;;;;39.83;25.53;;;8.00;1.00;;;;;;5110405;28;20346;-80
2024/03/11 08:26:48;;;;;;;37.40;25.20;;;8.10;99.90;;;;;;5114351;28;20643;-80
2024/03/11 08:29:15;;;;;;;37.80;26.37;;;8.20;99.90;;;;;;5110757;28;20200;-80
2024/03/11 08:31:41;;;;;;;38.50;24.77;;;8.30;1.00;;;;;;5112931;28;20256;-80
2024/03/11 08:34:09;;;;;;;35.03;24.43;;;8.30;1.00;;;;;;5112414;28;20233;-80
2024/03/11 08:36:36;;;;;;;35.70;24.63;;;8.40;1.00;;;;;;5109782;28;20206;-79
2024/03/11 08:39:03;;;;;;;37.87;26.67;;;8.40;99.90;;;;;;5111355;28;20287;-79
2024/03/11 08:41:33;;;;;;;37.43;24.03;;;8.50;99.90;;;;;;5107479;28;20217;-80
2024/03/11 08:44:00;;;;;;;34.83;24.50;;;8.60;1.00;;;;;;5111605;28;20213;-80
2024/03/11 08:46:27;;;;;;;40.47;25.90;;;8.80;1.00;;;;;;5106264;28;20205;-80
2024/03/11 08:48:54;;;;;;;38.03;25.70;;;9.00;1.00;;;;;;5103100;28;20254;-80
2024/03/11 08:51:21;;;;;;;39.53;26.03;;;9.20;1.00;;;;;;5108069;28;20612;-80
2024/03/11 08:53:48;;;;;;;37.20;26.40;;;9.30;99.90;;;;;;5106756;28;20574;-80
2024/03/11 08:56:15;;;;;;;34.93;23.37;;;9.40;42.40;;;;;;5105121;28;20193;-80
2024/03/11 08:58:43;;;;;;;32.97;23.60;;;9.50;1.00;;;;;;5114319;28;20223;-80
2024/03/11 09:01:11;;;;;;;34.13;23.77;;;9.60;1.00;;;;;;5116281;28;20240;-80
2024/03/11 09:03:38;;;;;;;36.03;24.10;;;9.60;99.90;;;;;;5112761;28;20198;-80
2024/03/11 09:06:06;;;;;;;35.47;24.27;;;9.60;1.00;;;;;;5110935;28;20714;-80
2024/03/11 09:08:35;;;;;;;33.93;23.40;;;9.80;1.00;;;;;;5108230;28;20201;-80
2024/03/11 09:11:04;;;;;;;34.77;24.20;;;9.80;1.00;;;;;;5104127;28;20217;-80
2024/03/11 09:13:32;;;;;;;32.07;23.03;;;10.00;99.90;;;;;;5109703;28;20211;-80
2024/03/11 09:16:00;;;;;;;33.37;23.03;;;10.20;69.60;;;;;;5105510;28;20291;-80
2024/03/11 09:18:27;;;;;;;32.57;21.67;;;10.20;1.00;;;;;;5111986;28;20193;-80
2024/03/11 09:20:55;;;;;;;29.73;21.17;;;10.50;1.00;;;;;;5106282;28;20209;-80
2024/03/11 09:23:23;;;;;;;32.20;21.70;;;10.50;1.00;;;;;;5112142;28;20197;-80
2024/03/11 09:25:50;;;;;;;30.27;21.23;;;10.90;1.00;;;;;;5113643;28;20300;-80
2024/03/11 09:28:17;;;;;;;31.43;20.47;;;11.10;99.90;;;;;;5112352;28;20202;-80
2024/03/11 09:30:44;;;;;;;29.43;20.10;;;11.70;99.90;;;;;;5113780;28;20288;-80
2024/03/11 09:33:12;;;;;;;27.40;19.17;;;11.50;1.00;;;;;;5108125;28;20209;-80
2024/03/11 09:35:38;;;;;;;26.83;18.90;;;11.60;1.00;;;;;;5098783;28;20587;-80
2024/03/11 09:38:05;;;;;;;23.00;15.77;;;12.20;1.00;;;;;;5111339;28;20217;-80
2024/03/11 09:40:33;;;;;;;22.80;15.43;;;11.70;99.90;;;;;;5114224;28;20219;-80
2024/03/11 09:43:00;;;;;;;21.77;15.03;;;11.70;99.90;;;;;;5101445;28;20610;-80
2024/03/11 09:45:29;;;;;;;14.67;9.80;;;11.70;99.90;;;;;;5104380;28;20213;-80
2024/03/11 09:47:57;;;;;;;14.63;10.07;;;11.50;99.90;;;;;;5097496;28;20201;-80
2024/03/11 09:50:30;;;;;;;13.53;9.07;;;11.40;1.00;;;;;;5097497;28;20236;-80
2024/03/11 09:52:58;;;;;;;13.30;8.23;;;11.20;12.50;;;;;;5108476;28;20216;-80
2024/03/11 09:55:28;;;;;;;10.30;7.37;;;11.10;1.00;;;;;;5107619;27;20237;-80
2024/03/11 09:58:01;;;;;;;11.90;7.87;;;11.10;1.00;;;;;;5108065;28;20686;-80
2024/03/11 10:00:32;;;;;;;11.33;7.60;;;11.20;1.00;;;;;;5105182;28;20221;-80
2024/03/11 10:03:00;;;;;;;10.73;6.90;;;11.40;1.00;;;;;;5105002;28;20288;-81
2024/03/11 10:05:30;;;;;;;10.27;6.70;;;11.60;1.00;;;;;;5099641;28;20229;-80
2024/03/11 10:07:59;;;;;;;9.17;6.20;;;12.30;1.00;;;;;;5104807;28;20255;-80
2024/03/11 10:10:28;;;;;;;8.53;6.33;;;13.00;1.00;;;;;;5112250;28;20253;-81
2024/03/11 10:12:58;;;;;;;11.03;7.10;;;13.10;1.00;;;;;;5107207;28;20197;-80
2024/03/11 10:15:28;;;;;;;8.03;5.60;;;13.60;1.00;;;;;;5108429;28;20223;-80
2024/03/11 10:18:01;;;;;;;6.57;4.90;;;13.70;99.90;;;;;;5108164;28;20207;-80
2024/03/11 10:20:34;;;;;;;6.23;5.03;;;13.70;99.90;;;;;;5112200;28;20219;-80
2024/03/11 10:23:18;;;;;;;4.77;4.00;;;13.40;99.90;;;;;;5108196;28;20648;-80
2024/03/11 10:25:46;;;;;;;2.60;2.33;;;13.60;99.90;;;;;;5102567;28;20205;-80
2024/03/11 10:28:31;;;;;;;2.60;2.03;;;13.60;48.50;;;;;;5113070;28;20197;-78
2024/03/11 10:30:58;;;;;;;2.27;2.07;;;13.50;1.00;;;;;;5106792;28;20225;-79
2024/03/11 10:33:31;;;;;;;1.93;1.73;;;13.60;1.00;;;;;;5110138;28;20198;-78
2024/03/11 10:36:08;;;;;;;1.70;1.60;;;13.40;1.00;;;;;;5111947;28;20202;-78
2024/03/11 10:38:38;;;;;;;1.00;1.00;;;13.20;1.00;;;;;;5114502;28;20232;-79
2024/03/11 10:41:18;;;;;;;1.50;1.40;;;13.20;1.00;;;;;;5108127;28;20221;-79
2024/03/11 10:43:45;;;;;;;1.33;1.23;;;13.30;1.00;;;;;;5118877;28;20193;-79
2024/03/11 10:46:20;;;;;;;2.67;1.73;;;13.10;1.00;;;;;;5103912;28;20201;-79
2024/03/11 10:48:48;;;;;;;3.23;1.77;;;13.70;1.00;;;;;;5109897;28;20201;-79
2024/03/11 10:51:21;;;;;;;2.37;2.17;;;13.50;1.00;;;;;;5117575;28;20242;-79
2024/03/11 10:53:51;;;;;;;2.40;2.20;;;13.30;1.00;;;;;;5103922;28;20648;-79
2024/03/11 10:56:23;;;;;;;1.83;1.73;;;12.70;1.00;;;;;;5103682;28;20201;-79
2024/03/11 10:58:54;;;;;;;1.80;1.60;;;12.90;1.00;;;;;;5108088;28;20198;-79
2024/03/11 11:01:30;;;;;;;2.30;2.00;;;13.60;1.00;;;;;;5108270;28;20216;-80
2024/03/11 11:04:00;;;;;;;2.65;1.70;;;13.50;1.00;;;;;;5116726;28;20202;-79
2024/03/11 11:06:29;;;;;;;1.40;1.30;;;13.50;1.00;;;;;;5112696;28;20205;-80
2024/03/11 11:08:56;;;;;;;1.40;1.30;;;12.30;1.00;;;;;;5106962;28;20205;-79
2024/03/11 11:11:24;;;;;;;1.40;1.30;;;12.30;1.00;;;;;;5111427;28;20213;-79
2024/03/11 11:13:55;;;;;;;1.30;1.20;;;12.20;1.00;;;;;;5107039;28;20206;-78
2024/03/11 11:16:25;;;;;;;0.73;0.73;;;12.20;1.00;;;;;;5109768;28;20201;-78
2024/03/11 11:18:55;;;;;;;0.63;0.63;;;12.40;1.00;;;;;;5108285;28;20667;-78
2024/03/11 11:21:29;;;;;;;0.80;0.80;;;12.00;1.00;;;;;;5111317;28;20228;-78
2024/03/11 11:23:57;;;;;;;0.80;0.73;;;12.20;1.00;;;;;;5106770;28;20721;-77
2024/03/11 11:26:43;;;;;;;0.83;0.83;;;12.40;1.00;;;;;;5105237;28;20205;-77
2024/03/11 11:29:10;;;;;;;0.90;0.90;;;12.60;1.00;;;;;;5110816;28;20197;-77
2024/03/11 11:31:38;;;;;;;0.90;0.90;;;12.40;1.00;;;;;;5109747;28;20294;-77
2024/03/11 11:34:12;;;;;;;0.60;0.60;;;12.10;1.00;;;;;;5111205;28;20199;-77
2024/03/11 11:36:57;;;;;;;0.60;0.60;;;11.90;1.00;;;;;;5115395;28;20267;-77
2024/03/11 11:39:32;;;;;;;0.80;0.80;;;11.90;1.00;;;;;;5108477;28;20269;-78
2024/03/11 11:41:59;;;;;;;0.60;0.60;;;11.60;1.00;;;;;;5106635;28;20667;-78
2024/03/11 11:44:45;;;;;;;0.73;0.73;;;11.50;1.00;;;;;;5116488;28;20567;-77
2024/03/11 11:47:15;;;;;;;0.60;0.60;;;11.60;1.00;;;;;;5107042;28;20754;-77
2024/03/11 11:49:43;;;;;;;0.60;0.60;;;11.60;1.00;;;;;;5111414;28;20230;-78
2024/03/11 11:52:14;;;;;;;0.83;0.70;;;11.80;1.00;;;;;;5114154;28;20264;-77
2024/03/11 11:54:42;;;;;;;0.60;0.60;;;11.80;1.00;;;;;;5110621;28;20672;-79
2024/03/11 11:57:11;;;;;;;0.83;0.60;;;11.70;1.00;;;;;;5110353;28;20193;-79
2024/03/11 11:59:40;;;;;;;1.23;0.70;;;11.80;1.00;;;;;;5112344;28;20201;-78
2024/03/11 12:02:16;;;;;;;1.00;1.00;;;11.70;1.00;;;;;;5112254;28;20240;-78
2024/03/11 12:04:48;;;;;;;1.27;0.70;;;11.80;1.00;;;;;;5108709;28;20236;-79
2024/03/11 12:07:22;;;;;;;0.50;0.50;;;11.80;1.00;;;;;;5121702;28;20261;-78
2024/03/11 12:09:51;;;;;;;0.63;0.63;;;11.60;1.00;;;;;;5111657;28;20204;-78
2024/03/11 12:12:28;;;;;;;0.57;0.57;;;11.60;1.00;;;;;;5110342;28;20217;-77
2024/03/11 12:14:56;;;;;;;0.50;0.50;;;11.80;1.00;;;;;;5115399;27;20225;-78
2024/03/11 12:17:24;;;;;;;0.33;0.33;;;12.00;1.00;;;;;;5109292;28;20198;-78
2024/03/11 12:20:12;;;;;;;0.47;0.27;;;12.30;1.00;;;;;;5116026;28;20296;-77
2024/03/11 12:22:39;;;;;;;0.40;0.40;;;12.20;1.00;;;;;;5115326;28;20200;-78
2024/03/11 12:25:13;;;;;;;0.20;0.20;;;12.10;1.00;;;;;;5112848;28;20261;-78
2024/03/11 12:27:41;;;;;;;0.40;0.40;;;12.20;1.00;;;;;;5112003;28;20206;-78
2024/03/11 12:30:16;;;;;;;0.30;0.30;;;12.20;1.00;;;;;;5117916;27;20201;-78
2024/03/11 12:32:45;;;;;;;0.40;0.30;;;12.10;1.00;;;;;;5116091;28;20223;-77
2024/03/11 12:35:14;;;;;;;0.30;0.30;;;12.00;1.00;;;;;;5117080;28;20246;-78
2024/03/11 12:37:43;;;;;;;0.10;0.10;;;12.00;1.00;;;;;;5113850;28;20215;-80
2024/03/11 12:40:18;;;;;;;0.20;0.20;;;12.20;1.00;;;;;;5113686;28;20201;-79
2024/03/11 12:42:47;;;;;;;0.30;0.30;;;12.10;1.00;;;;;;5115807;28;20207;-81
2024/03/11 12:45:15;;;;;;;0.20;0.20;;;12.20;1.00;;;;;;5107200;28;20246;-80
2024/03/11 12:47:43;;;;;;;0.20;0.20;;;12.10;1.00;;;;;;5116523;28;20220;-79
2024/03/11 12:50:11;;;;;;;0.60;0.20;;;12.10;1.00;;;;;;5112125;28;20198;-79